createdAt,value
2018-04-25T00:00:18.866Z,0.00
2018-04-25T00:01:18.821Z,0.00
2018-04-25T00:02:18.776Z,0.00
2018-04-25T00:03:18.732Z,0.00
2018-04-25T00:04:18.686Z,0.00
2018-04-25T00:05:18.641Z,0.00
2018-04-25T00:06:18.596Z,0.00
2018-04-25T00:07:18.551Z,0.00
2018-04-25T00:08:18.506Z,0.00
2018-04-25T00:09:18.461Z,0.00
2018-04-25T00:10:18.417Z,0.00
2018-04-25T00:11:18.379Z,0.00
2018-04-25T00:12:18.326Z,0.00
2018-04-25T00:13:18.282Z,0.00
2018-04-25T00:14:18.237Z,0.00
2018-04-25T00:15:18.192Z,0.00
2018-04-25T00:16:18.147Z,0.00
2018-04-25T00:17:18.102Z,0.00
2018-04-25T00:18:18.057Z,0.00
2018-04-25T00:19:18.014Z,0.00
2018-04-25T00:20:17.967Z,0.00
2018-04-25T00:21:17.924Z,0.00
2018-04-25T00:22:17.877Z,0.00
2018-04-25T00:23:17.834Z,0.00
2018-04-25T00:24:17.789Z,0.00
2018-04-25T00:25:17.744Z,0.00
2018-04-25T00:26:17.697Z,0.00
2018-04-25T00:27:17.653Z,0.00
2018-04-25T00:28:17.608Z,0.00
2018-04-25T00:29:17.562Z,0.00
2018-04-25T00:30:17.519Z,0.00
2018-04-25T00:31:17.472Z,0.00
2018-04-25T00:32:17.427Z,0.00
2018-04-25T00:33:17.382Z,0.00
2018-04-25T00:34:17.337Z,0.00
2018-04-25T00:35:17.293Z,0.00
2018-04-25T00:36:17.246Z,0.00
2018-04-25T00:37:17.210Z,0.00
2018-04-25T00:38:17.157Z,0.00
2018-04-25T00:39:17.114Z,0.00
2018-04-25T00:40:17.117Z,0.00
2018-04-25T00:41:17.022Z,0.00
2018-04-25T00:42:16.977Z,0.00
2018-04-25T00:43:16.932Z,0.00
2018-04-25T00:44:16.887Z,0.00
2018-04-25T00:45:16.843Z,0.00
2018-04-25T00:46:16.797Z,0.00
2018-04-25T00:47:16.756Z,0.00
2018-04-25T00:48:16.706Z,0.00
2018-04-25T00:49:16.662Z,0.00
2018-04-25T00:50:16.616Z,0.00
2018-04-25T00:51:16.573Z,0.00
2018-04-25T00:52:16.531Z,0.00
2018-04-25T00:53:16.481Z,0.00
2018-04-25T00:54:16.439Z,0.00
2018-04-25T00:55:16.393Z,0.00
2018-04-25T00:56:16.345Z,0.00
2018-04-25T00:57:16.301Z,0.00
2018-04-25T00:58:16.256Z,0.00
2018-04-25T00:59:16.211Z,0.00
2018-04-25T01:00:16.165Z,0.00
2018-04-25T01:01:16.121Z,0.00
2018-04-25T01:02:16.075Z,0.00
2018-04-25T01:03:16.030Z,0.00
2018-04-25T01:04:15.984Z,0.00
2018-04-25T01:05:15.942Z,0.00
2018-04-25T01:06:15.894Z,0.00
2018-04-25T01:07:15.849Z,0.00
2018-04-25T01:08:15.803Z,0.00
2018-04-25T01:09:15.759Z,0.00
2018-04-25T01:10:15.714Z,0.00
2018-04-25T01:11:15.669Z,0.00
2018-04-25T01:12:15.623Z,0.00
2018-04-25T01:13:15.578Z,0.00
2018-04-25T01:14:15.533Z,0.00
2018-04-25T01:15:15.489Z,0.00
2018-04-25T01:16:15.442Z,0.00
2018-04-25T01:17:15.398Z,0.00
2018-04-25T01:18:15.353Z,0.00
2018-04-25T01:19:15.308Z,0.00
2018-04-25T01:20:15.262Z,0.00
2018-04-25T01:21:15.220Z,0.00
2018-04-25T01:22:15.172Z,0.00
2018-04-25T01:23:15.127Z,0.00
2018-04-25T01:24:15.081Z,0.00
2018-04-25T01:25:15.123Z,0.00
2018-04-25T01:26:14.991Z,0.00
2018-04-25T01:27:14.945Z,0.00
2018-04-25T01:28:14.900Z,0.00
2018-04-25T01:29:14.855Z,0.00
2018-04-25T01:30:14.809Z,0.00
2018-04-25T01:31:14.765Z,0.00
2018-04-25T01:32:14.718Z,0.00
2018-04-25T01:33:14.681Z,0.00
2018-04-25T01:34:14.629Z,0.00
2018-04-25T01:35:14.583Z,0.00
2018-04-25T01:36:14.539Z,0.00
2018-04-25T01:37:14.492Z,0.00
2018-04-25T01:38:14.447Z,0.00
2018-04-25T01:39:14.401Z,0.00
2018-04-25T01:40:14.355Z,0.00
2018-04-25T01:41:14.310Z,0.00
2018-04-25T01:42:14.315Z,0.00
2018-04-25T01:43:14.220Z,0.00
2018-04-25T01:44:14.174Z,0.00
2018-04-25T01:45:14.130Z,0.00
2018-04-25T01:46:14.083Z,0.00
2018-04-25T01:47:14.091Z,0.00
2018-04-25T01:48:13.992Z,0.00
2018-04-25T01:49:13.947Z,0.00
2018-04-25T01:50:13.901Z,0.00
2018-04-25T01:51:13.856Z,0.00
2018-04-25T01:52:13.809Z,0.00
2018-04-25T01:53:13.764Z,0.00
2018-04-25T01:54:13.719Z,0.00
2018-04-25T01:55:13.675Z,0.00
2018-04-25T01:56:13.628Z,0.00
2018-04-25T01:57:13.582Z,0.00
2018-04-25T01:58:13.538Z,0.00
2018-04-25T01:59:13.493Z,0.00
2018-04-25T02:00:13.446Z,0.00
2018-04-25T02:01:13.407Z,0.00
2018-04-25T02:02:13.355Z,0.00
2018-04-25T02:03:13.310Z,0.00
2018-04-25T02:04:13.264Z,0.00
2018-04-25T02:05:13.219Z,0.00
2018-04-25T02:06:13.174Z,0.00
2018-04-25T02:07:13.129Z,0.00
2018-04-25T02:08:13.087Z,0.00
2018-04-25T02:09:13.037Z,0.00
2018-04-25T02:10:12.992Z,0.00
2018-04-25T02:11:12.947Z,0.00
2018-04-25T02:12:12.902Z,0.00
2018-04-25T02:13:12.856Z,0.00
2018-04-25T02:14:12.811Z,0.00
2018-04-25T02:15:12.766Z,0.00
2018-04-25T02:16:12.720Z,0.00
2018-04-25T02:17:12.675Z,0.00
2018-04-25T02:18:12.630Z,0.00
2018-04-25T02:19:12.585Z,0.00
2018-04-25T02:20:12.550Z,0.00
2018-04-25T02:21:12.494Z,0.00
2018-04-25T02:22:12.452Z,0.00
2018-04-25T02:23:12.406Z,0.00
2018-04-25T02:24:12.358Z,0.00
2018-04-25T02:25:12.313Z,0.00
2018-04-25T02:26:12.268Z,0.00
2018-04-25T02:27:12.224Z,0.00
2018-04-25T02:28:12.177Z,0.00
2018-04-25T02:29:12.132Z,0.00
2018-04-25T02:30:12.092Z,0.00
2018-04-25T02:31:12.044Z,0.00
2018-04-25T02:32:11.995Z,0.00
2018-04-25T02:33:11.951Z,0.00
2018-04-25T02:34:11.905Z,0.00
2018-04-25T02:35:11.860Z,0.00
2018-04-25T02:36:11.814Z,0.00
2018-04-25T02:37:11.769Z,0.00
2018-04-25T02:38:11.723Z,0.00
2018-04-25T02:39:11.680Z,0.00
2018-04-25T02:40:11.635Z,0.00
2018-04-25T02:41:11.588Z,0.00
2018-04-25T02:42:11.541Z,0.00
2018-04-25T02:43:11.497Z,0.00
2018-04-25T02:44:11.450Z,0.00
2018-04-25T02:45:11.409Z,0.00
2018-04-25T02:46:11.362Z,0.00
2018-04-25T02:47:11.314Z,0.00
2018-04-25T02:48:11.269Z,0.00
2018-04-25T02:49:11.222Z,0.00
2018-04-25T02:50:11.177Z,0.00
2018-04-25T02:51:11.132Z,0.00
2018-04-25T02:52:11.092Z,0.00
2018-04-25T02:53:11.045Z,0.00
2018-04-25T02:54:10.994Z,0.00
2018-04-25T02:55:10.948Z,0.00
2018-04-25T02:56:10.903Z,0.00
2018-04-25T02:57:10.859Z,0.00
2018-04-25T02:58:10.811Z,0.00
2018-04-25T02:59:10.772Z,0.00
2018-04-25T03:00:10.719Z,0.00
2018-04-25T03:01:10.672Z,0.00
2018-04-25T03:02:10.627Z,0.00
2018-04-25T03:03:10.582Z,0.00
2018-04-25T03:04:10.534Z,0.00
2018-04-25T03:05:10.489Z,0.00
2018-04-25T03:06:10.443Z,0.00
2018-04-25T03:07:10.398Z,0.00
2018-04-25T03:08:10.351Z,0.00
2018-04-25T03:09:10.308Z,0.00
2018-04-25T03:10:10.259Z,0.00
2018-04-25T03:11:10.213Z,0.00
2018-04-25T03:12:10.166Z,0.00
2018-04-25T03:13:10.121Z,0.00
2018-04-25T03:14:10.075Z,0.00
2018-04-25T03:15:10.029Z,0.00
2018-04-25T03:16:09.982Z,0.00
2018-04-25T03:17:09.936Z,0.00
2018-04-25T03:18:09.891Z,0.00
2018-04-25T03:19:09.845Z,0.00
2018-04-25T03:20:09.798Z,0.00
2018-04-25T03:21:09.752Z,0.00
2018-04-25T03:22:09.706Z,0.00
2018-04-25T03:23:09.660Z,0.00
2018-04-25T03:24:09.614Z,0.00
2018-04-25T03:25:09.568Z,0.00
2018-04-25T03:26:09.521Z,4.00
2018-04-25T03:27:09.476Z,4.00
2018-04-25T03:28:09.429Z,4.00
2018-04-25T03:29:09.383Z,0.00
2018-04-25T03:30:09.338Z,0.00
2018-04-25T03:31:09.291Z,4.00
2018-04-25T03:32:09.245Z,4.00
2018-04-25T03:33:09.199Z,4.00
2018-04-25T03:34:09.153Z,4.00
2018-04-25T03:35:09.119Z,4.00
2018-04-25T03:36:09.061Z,4.00
2018-04-25T03:37:09.015Z,4.00
2018-04-25T03:38:08.969Z,8.00
2018-04-25T03:39:08.923Z,8.00
2018-04-25T03:40:08.877Z,8.00
2018-04-25T03:41:08.956Z,8.00
2018-04-25T03:42:08.789Z,12.00
2018-04-25T03:43:08.739Z,8.00
2018-04-25T03:44:08.697Z,8.00
2018-04-25T03:45:08.650Z,12.00
2018-04-25T03:46:08.601Z,12.00
2018-04-25T03:47:08.556Z,8.00
2018-04-25T03:48:08.508Z,8.00
2018-04-25T03:49:08.463Z,12.00
2018-04-25T03:50:08.417Z,12.00
2018-04-25T03:51:08.375Z,12.00
2018-04-25T03:52:08.325Z,16.00
2018-04-25T03:53:08.279Z,16.00
2018-04-25T03:54:08.234Z,16.00
2018-04-25T03:55:08.187Z,20.00
2018-04-25T03:56:08.142Z,20.00
2018-04-25T03:57:08.094Z,28.00
2018-04-25T03:58:08.049Z,28.00
2018-04-25T03:59:08.021Z,24.00
2018-04-25T04:00:07.956Z,28.00
2018-04-25T04:01:07.910Z,28.00
2018-04-25T04:02:07.868Z,28.00
2018-04-25T04:03:07.819Z,28.00
2018-04-25T04:04:07.772Z,32.00
2018-04-25T04:05:07.727Z,32.00
2018-04-25T04:06:07.681Z,32.00
2018-04-25T04:07:07.640Z,32.00
2018-04-25T04:08:07.589Z,32.00
2018-04-25T04:09:07.543Z,32.00
2018-04-25T04:10:07.498Z,28.00
2018-04-25T04:11:07.452Z,24.00
2018-04-25T04:12:07.406Z,24.00
2018-04-25T04:13:07.360Z,28.00
2018-04-25T04:14:07.315Z,28.00
2018-04-25T04:15:07.275Z,32.00
2018-04-25T04:16:07.222Z,36.00
2018-04-25T04:17:07.177Z,48.00
2018-04-25T04:18:07.131Z,64.00
2018-04-25T04:19:07.088Z,80.00
2018-04-25T04:20:07.039Z,104.00
2018-04-25T04:21:06.994Z,108.00
2018-04-25T04:22:06.948Z,116.00
2018-04-25T04:23:06.955Z,132.00
2018-04-25T04:24:06.855Z,136.00
2018-04-25T04:25:06.813Z,140.00
2018-04-25T04:26:06.765Z,160.00
2018-04-25T04:27:06.720Z,176.00
2018-04-25T04:28:06.674Z,188.00
2018-04-25T04:29:06.631Z,200.00
2018-04-25T04:30:06.583Z,224.00
2018-04-25T04:31:06.538Z,248.00
2018-04-25T04:32:06.490Z,272.00
2018-04-25T04:33:06.444Z,300.00
2018-04-25T04:34:06.399Z,312.00
2018-04-25T04:35:06.354Z,340.00
2018-04-25T04:36:06.307Z,348.00
2018-04-25T04:37:06.262Z,336.00
2018-04-25T04:38:06.223Z,308.00
2018-04-25T04:39:06.171Z,280.00
2018-04-25T04:40:06.124Z,252.00
2018-04-25T04:41:06.078Z,236.00
2018-04-25T04:42:06.033Z,244.00
2018-04-25T04:43:06.063Z,256.00
2018-04-25T04:44:05.946Z,260.00
2018-04-25T04:45:05.896Z,272.00
2018-04-25T04:46:05.850Z,292.00
2018-04-25T04:47:05.805Z,308.00
2018-04-25T04:48:05.759Z,308.00
2018-04-25T04:49:05.718Z,328.00
2018-04-25T04:50:05.674Z,308.00
2018-04-25T04:51:05.623Z,312.00
2018-04-25T04:52:05.576Z,288.00
2018-04-25T04:53:05.531Z,296.00
2018-04-25T04:54:05.486Z,316.00
2018-04-25T04:55:05.440Z,336.00
2018-04-25T04:56:05.394Z,356.00
2018-04-25T04:57:05.349Z,388.00
2018-04-25T04:58:05.303Z,408.00
2018-04-25T04:59:05.257Z,416.00
2018-04-25T05:00:05.213Z,404.00
2018-04-25T05:01:05.172Z,384.00
2018-04-25T05:02:05.121Z,356.00
2018-04-25T05:03:05.075Z,376.00
2018-04-25T05:04:05.033Z,436.00
2018-04-25T05:05:04.984Z,500.00
2018-04-25T05:06:04.938Z,536.00
2018-04-25T05:07:04.893Z,548.00
2018-04-25T05:08:04.847Z,604.00
2018-04-25T05:09:04.801Z,792.00
2018-04-25T05:10:04.757Z,1024.00
2018-04-25T05:11:04.711Z,1312.00
2018-04-25T05:12:04.664Z,1500.00
2018-04-25T05:13:04.693Z,1472.00
2018-04-25T05:14:04.574Z,1584.00
2018-04-25T05:15:04.529Z,1664.00
2018-04-25T05:16:04.485Z,1576.00
2018-04-25T05:17:04.437Z,1280.00
2018-04-25T05:18:04.492Z,1124.00
2018-04-25T05:19:04.351Z,1032.00
2018-04-25T05:20:04.303Z,932.00
2018-04-25T05:21:04.256Z,916.00
2018-04-25T05:22:04.217Z,900.00
2018-04-25T05:23:04.173Z,820.00
2018-04-25T05:24:04.124Z,800.00
2018-04-25T05:25:04.096Z,916.00
2018-04-25T05:26:04.030Z,984.00
2018-04-25T05:27:03.984Z,968.00
2018-04-25T05:28:03.939Z,960.00
2018-04-25T05:29:03.894Z,944.00
2018-04-25T05:30:03.851Z,952.00
2018-04-25T05:31:03.804Z,912.00
2018-04-25T05:32:03.796Z,812.00
2018-04-25T05:33:03.717Z,720.00
2018-04-25T05:34:03.668Z,636.00
2018-04-25T05:35:03.623Z,584.00
2018-04-25T05:36:03.577Z,596.00
2018-04-25T05:37:03.533Z,596.00
2018-04-25T05:38:03.487Z,632.00
2018-04-25T05:39:03.442Z,720.00
2018-04-25T05:40:03.397Z,808.00
2018-04-25T05:41:03.352Z,824.00
2018-04-25T05:42:03.306Z,764.00
2018-04-25T05:43:03.262Z,704.00
2018-04-25T05:44:03.215Z,684.00
2018-04-25T05:45:03.171Z,748.00
2018-04-25T05:46:03.138Z,816.00
2018-04-25T05:47:03.080Z,748.00
2018-04-25T05:48:03.034Z,636.00
2018-04-25T05:49:02.989Z,620.00
2018-04-25T05:50:02.945Z,752.00
2018-04-25T05:51:02.900Z,1028.00
2018-04-25T05:52:02.853Z,1076.00
2018-04-25T05:53:02.808Z,952.00
2018-04-25T05:54:02.795Z,812.00
2018-04-25T05:55:02.718Z,764.00
2018-04-25T05:56:02.671Z,736.00
2018-04-25T05:57:02.629Z,732.00
2018-04-25T05:58:02.582Z,784.00
2018-04-25T05:59:02.537Z,904.00
2018-04-25T06:00:02.492Z,912.00
2018-04-25T06:01:02.445Z,860.00
2018-04-25T06:02:02.402Z,912.00
2018-04-25T06:03:02.355Z,880.00
2018-04-25T06:04:02.308Z,912.00
2018-04-25T06:05:02.272Z,840.00
2018-04-25T06:06:02.219Z,840.00
2018-04-25T06:07:02.186Z,956.00
2018-04-25T06:08:02.128Z,1160.00
2018-04-25T06:09:02.083Z,1404.00
2018-04-25T06:10:02.038Z,1528.00
2018-04-25T06:11:01.992Z,1536.00
2018-04-25T06:12:01.953Z,1528.00
2018-04-25T06:13:01.906Z,1368.00
2018-04-25T06:14:01.861Z,1180.00
2018-04-25T06:15:01.812Z,1024.00
2018-04-25T06:16:01.767Z,960.00
2018-04-25T06:17:01.721Z,1004.00
2018-04-25T06:18:01.677Z,1048.00
2018-04-25T06:19:01.631Z,1008.00
2018-04-25T06:20:01.586Z,964.00
2018-04-25T06:21:01.542Z,936.00
2018-04-25T06:22:01.497Z,860.00
2018-04-25T06:23:01.452Z,852.00
2018-04-25T06:24:01.407Z,892.00
2018-04-25T06:25:01.362Z,940.00
2018-04-25T06:26:01.316Z,968.00
2018-04-25T06:27:01.273Z,912.00
2018-04-25T06:28:01.225Z,828.00
2018-04-25T06:29:01.181Z,744.00
2018-04-25T06:30:01.137Z,700.00
2018-04-25T06:31:01.090Z,716.00
2018-04-25T06:32:01.049Z,732.00
2018-04-25T06:33:01.000Z,744.00
2018-04-25T06:34:00.956Z,788.00
2018-04-25T06:35:00.910Z,828.00
2018-04-25T06:36:00.865Z,816.00
2018-04-25T06:37:00.821Z,824.00
2018-04-25T06:38:00.776Z,800.00
2018-04-25T06:39:00.735Z,824.00
2018-04-25T06:40:00.686Z,816.00
2018-04-25T06:41:00.641Z,820.00
2018-04-25T06:42:00.595Z,876.00
2018-04-25T06:43:00.551Z,1108.00
2018-04-25T06:44:00.506Z,1320.00
2018-04-25T06:45:00.549Z,1516.00
2018-04-25T06:46:00.419Z,1628.00
2018-04-25T06:47:00.375Z,1692.00
2018-04-25T06:48:00.325Z,1668.00
2018-04-25T06:49:00.279Z,1512.00
2018-04-25T06:50:00.245Z,1328.00
2018-04-25T06:51:00.191Z,1300.00
2018-04-25T06:52:00.145Z,1152.00
2018-04-25T06:53:00.101Z,1008.00
2018-04-25T06:54:00.057Z,864.00
2018-04-25T06:55:00.015Z,864.00
2018-04-25T06:55:59.966Z,888.00
2018-04-25T06:56:59.921Z,732.00
2018-04-25T06:57:59.876Z,804.00
2018-04-25T06:58:59.833Z,1092.00
2018-04-25T06:59:59.787Z,1356.00
2018-04-25T07:00:59.742Z,1764.00
2018-04-25T07:01:59.698Z,1512.00
2018-04-25T07:02:59.655Z,1464.00
2018-04-25T07:03:59.608Z,1636.00
2018-04-25T07:04:59.564Z,1796.00
2018-04-25T07:05:59.519Z,2276.00
2018-04-25T07:06:59.474Z,2380.00
2018-04-25T07:07:59.442Z,2080.00
2018-04-25T07:08:59.384Z,1816.00
2018-04-25T07:09:59.339Z,1720.00
2018-04-25T07:10:59.295Z,1788.00
2018-04-25T07:11:59.251Z,1840.00
2018-04-25T07:12:59.210Z,1464.00
2018-04-25T07:13:59.219Z,1084.00
2018-04-25T07:14:59.115Z,848.00
2018-04-25T07:15:59.071Z,856.00
2018-04-25T07:16:59.026Z,868.00
2018-04-25T07:17:58.982Z,948.00
2018-04-25T07:18:58.938Z,1060.00
2018-04-25T07:19:58.892Z,1128.00
2018-04-25T07:20:58.849Z,1136.00
2018-04-25T07:21:58.802Z,1120.00
2018-04-25T07:22:58.759Z,1116.00
2018-04-25T07:23:58.713Z,1164.00
2018-04-25T07:24:58.669Z,1264.00
2018-04-25T07:25:58.625Z,1192.00
2018-04-25T07:26:58.580Z,1084.00
2018-04-25T07:27:58.534Z,1124.00
2018-04-25T07:28:58.493Z,1172.00
2018-04-25T07:29:58.445Z,1312.00
2018-04-25T07:30:58.402Z,1292.00
2018-04-25T07:31:58.362Z,1396.00
2018-04-25T07:32:58.320Z,1328.00
2018-04-25T07:33:58.267Z,1400.00
2018-04-25T07:34:58.223Z,1348.00
2018-04-25T07:35:58.177Z,1300.00
2018-04-25T07:36:58.132Z,1356.00
2018-04-25T07:37:58.094Z,1460.00
2018-04-25T07:38:58.144Z,1488.00
2018-04-25T07:39:57.998Z,1452.00
2018-04-25T07:40:57.953Z,1420.00
2018-04-25T07:41:57.977Z,1340.00
2018-04-25T07:42:57.864Z,1380.00
2018-04-25T07:43:57.868Z,1332.00
2018-04-25T07:44:57.776Z,1316.00
2018-04-25T07:45:57.730Z,1256.00
2018-04-25T07:46:57.686Z,1212.00
2018-04-25T07:47:57.642Z,1296.00
2018-04-25T07:48:57.596Z,1288.00
2018-04-25T07:49:57.551Z,1176.00
2018-04-25T07:50:57.508Z,1160.00
2018-04-25T07:51:57.466Z,1240.00
2018-04-25T07:52:57.419Z,1368.00
2018-04-25T07:53:57.374Z,1388.00
2018-04-25T07:54:57.329Z,1452.00
2018-04-25T07:55:57.283Z,1560.00
2018-04-25T07:56:57.241Z,1648.00
2018-04-25T07:57:57.194Z,1624.00
2018-04-25T07:58:57.148Z,1412.00
2018-04-25T07:59:57.105Z,1316.00
2018-04-25T08:00:57.060Z,1420.00
2018-04-25T08:01:57.016Z,1712.00
2018-04-25T08:02:56.975Z,1944.00
2018-04-25T08:03:56.927Z,2004.00
2018-04-25T08:04:56.882Z,1952.00
2018-04-25T08:05:56.854Z,1936.00
2018-04-25T08:06:56.794Z,2208.00
2018-04-25T08:07:56.748Z,2644.00
2018-04-25T08:08:56.705Z,3256.00
2018-04-25T08:09:56.662Z,3504.00
2018-04-25T08:10:56.615Z,4076.00
2018-04-25T08:11:56.570Z,4912.00
2018-04-25T08:12:56.526Z,5964.00
2018-04-25T08:13:56.482Z,7356.00
2018-04-25T08:14:56.438Z,9196.00
2018-04-25T08:15:56.393Z,7656.00
2018-04-25T08:16:56.351Z,7048.00
2018-04-25T08:17:56.356Z,6548.00
2018-04-25T08:18:56.262Z,6932.00
2018-04-25T08:19:56.217Z,6644.00
2018-04-25T08:20:56.178Z,6520.00
2018-04-25T08:21:56.131Z,6252.00
2018-04-25T08:22:56.088Z,6192.00
2018-04-25T08:23:56.093Z,6160.00
2018-04-25T08:24:56.000Z,5820.00
2018-04-25T08:25:55.957Z,5836.00
2018-04-25T08:26:55.914Z,4980.00
2018-04-25T08:27:55.870Z,4236.00
2018-04-25T08:28:55.827Z,3572.00
2018-04-25T08:29:55.788Z,3360.00
2018-04-25T08:30:55.747Z,3160.00
2018-04-25T08:31:55.698Z,3484.00
2018-04-25T08:32:55.655Z,3740.00
2018-04-25T08:33:55.613Z,3168.00
2018-04-25T08:34:55.580Z,2564.00
2018-04-25T08:35:55.526Z,2504.00
2018-04-25T08:36:55.487Z,2340.00
2018-04-25T08:37:55.441Z,2148.00
2018-04-25T08:38:55.398Z,2364.00
2018-04-25T08:39:55.359Z,2404.00
2018-04-25T08:40:55.317Z,2880.00
2018-04-25T08:41:55.269Z,3036.00
2018-04-25T08:42:55.226Z,2872.00
2018-04-25T08:43:55.182Z,3036.00
2018-04-25T08:44:55.169Z,3328.00
2018-04-25T08:45:55.097Z,3676.00
2018-04-25T08:46:55.053Z,3888.00
2018-04-25T08:47:55.008Z,3444.00
2018-04-25T08:48:54.966Z,3020.00
2018-04-25T08:49:54.922Z,2772.00
2018-04-25T08:50:54.880Z,2832.00
2018-04-25T08:51:54.837Z,3328.00
2018-04-25T08:52:54.793Z,4072.00
2018-04-25T08:53:54.751Z,4204.00
2018-04-25T08:54:54.707Z,5024.00
2018-04-25T08:55:54.664Z,6952.00
2018-04-25T08:56:54.621Z,10520.00
2018-04-25T08:57:54.579Z,16032.00
2018-04-25T08:58:54.535Z,11180.00
2018-04-25T08:59:54.500Z,7320.00
2018-04-25T09:00:54.448Z,8028.00
2018-04-25T09:01:54.406Z,12232.00
2018-04-25T09:02:54.363Z,21280.00
2018-04-25T09:03:54.320Z,18784.00
2018-04-25T09:04:54.278Z,23136.00
2018-04-25T09:05:54.261Z,12244.00
2018-04-25T09:06:54.195Z,10856.00
2018-04-25T09:07:54.153Z,11448.00
2018-04-25T09:08:54.112Z,12132.00
2018-04-25T09:09:54.072Z,12784.00
2018-04-25T09:10:54.030Z,10604.00
2018-04-25T09:11:53.990Z,10756.00
2018-04-25T09:12:53.949Z,10584.00
2018-04-25T09:13:53.912Z,9464.00
2018-04-25T09:14:53.870Z,22272.00
2018-04-25T09:15:53.833Z,19264.00
2018-04-25T09:16:53.789Z,16512.00
2018-04-25T09:17:53.799Z,20288.00
2018-04-25T09:18:53.710Z,29120.00
2018-04-25T09:19:53.670Z,30976.00
2018-04-25T09:20:53.631Z,36448.00
2018-04-25T09:21:53.593Z,32512.00
2018-04-25T09:22:53.555Z,18144.00
2018-04-25T09:23:53.518Z,11596.00
2018-04-25T09:24:53.480Z,10272.00
2018-04-25T09:25:53.446Z,9804.00
2018-04-25T09:26:53.408Z,14256.00
2018-04-25T09:27:53.371Z,17376.00
2018-04-25T09:28:53.337Z,35456.00
2018-04-25T09:29:53.301Z,22368.00
2018-04-25T09:30:53.263Z,20864.00
2018-04-25T09:31:53.232Z,14412.00
2018-04-25T09:32:53.192Z,28704.00
2018-04-25T09:33:53.159Z,11980.00
2018-04-25T09:34:53.122Z,10272.00
2018-04-25T09:35:53.089Z,10152.00
2018-04-25T09:36:53.051Z,11652.00
2018-04-25T09:37:53.016Z,16384.00
2018-04-25T09:38:52.986Z,12276.00
2018-04-25T09:39:52.946Z,13888.00
2018-04-25T09:40:52.911Z,10136.00
2018-04-25T09:41:52.875Z,8524.00
2018-04-25T09:42:52.840Z,7800.00
2018-04-25T09:43:52.804Z,7424.00
2018-04-25T09:44:52.768Z,8600.00
2018-04-25T09:45:52.800Z,8280.00
2018-04-25T09:46:52.697Z,7188.00
2018-04-25T09:47:52.710Z,6340.00
2018-04-25T09:48:52.622Z,7784.00
2018-04-25T09:49:52.595Z,8588.00
2018-04-25T09:50:52.550Z,7676.00
2018-04-25T09:51:52.534Z,7648.00
2018-04-25T09:52:52.475Z,10636.00
2018-04-25T09:53:52.437Z,10036.00
2018-04-25T09:54:52.401Z,10868.00
2018-04-25T09:55:52.361Z,8988.00
2018-04-25T09:56:52.325Z,8048.00
2018-04-25T09:57:52.375Z,8376.00
2018-04-25T09:58:52.247Z,9908.00
2018-04-25T09:59:52.215Z,11072.00
2018-04-25T10:00:52.173Z,10936.00
2018-04-25T10:01:52.134Z,10496.00
2018-04-25T10:02:52.096Z,10096.00
2018-04-25T10:03:52.060Z,9904.00
2018-04-25T10:04:52.022Z,7248.00
2018-04-25T10:05:51.981Z,8980.00
2018-04-25T10:06:51.944Z,10788.00
2018-04-25T10:07:51.904Z,9392.00
2018-04-25T10:08:51.864Z,8592.00
2018-04-25T10:09:51.828Z,9340.00
2018-04-25T10:10:51.848Z,11144.00
2018-04-25T10:11:51.750Z,9868.00
2018-04-25T10:12:51.711Z,8792.00
2018-04-25T10:13:51.674Z,8772.00
2018-04-25T10:14:51.638Z,9960.00
2018-04-25T10:15:51.596Z,8784.00
2018-04-25T10:16:51.561Z,7928.00
2018-04-25T10:17:51.520Z,9296.00
2018-04-25T10:18:51.481Z,8364.00
2018-04-25T10:19:51.443Z,8952.00
2018-04-25T10:20:51.406Z,8320.00
2018-04-25T10:21:51.366Z,9576.00
2018-04-25T10:22:51.328Z,8516.00
2018-04-25T10:23:51.288Z,7232.00
2018-04-25T10:24:51.251Z,7832.00
2018-04-25T10:25:51.212Z,7180.00
2018-04-25T10:26:51.174Z,6880.00
2018-04-25T10:27:51.135Z,8116.00
2018-04-25T10:28:51.096Z,8360.00
2018-04-25T10:29:51.062Z,7332.00
2018-04-25T10:30:51.019Z,5460.00
2018-04-25T10:31:50.980Z,4420.00
2018-04-25T10:32:50.941Z,3596.00
2018-04-25T10:33:50.902Z,3836.00
2018-04-25T10:34:50.863Z,3240.00
2018-04-25T10:35:50.824Z,2700.00
2018-04-25T10:36:50.784Z,2472.00
2018-04-25T10:37:50.745Z,2788.00
2018-04-25T10:38:50.710Z,2296.00
2018-04-25T10:39:50.666Z,2212.00
2018-04-25T10:40:50.627Z,2380.00
2018-04-25T10:41:50.587Z,2244.00
2018-04-25T10:42:50.547Z,2536.00
2018-04-25T10:43:50.506Z,2744.00
2018-04-25T10:44:50.464Z,2916.00
2018-04-25T10:45:50.425Z,3224.00
2018-04-25T10:46:50.385Z,3704.00
2018-04-25T10:47:50.343Z,4128.00
2018-04-25T10:48:50.303Z,4296.00
2018-04-25T10:49:50.262Z,4116.00
2018-04-25T10:50:50.222Z,4100.00
2018-04-25T10:51:50.181Z,3712.00
2018-04-25T10:52:50.139Z,2972.00
2018-04-25T10:53:50.100Z,2228.00
2018-04-25T10:54:50.058Z,1876.00
2018-04-25T10:55:50.016Z,1688.00
2018-04-25T10:56:49.974Z,1520.00
2018-04-25T10:57:49.934Z,1640.00
2018-04-25T10:58:49.893Z,1544.00
2018-04-25T10:59:49.852Z,1384.00
2018-04-25T11:00:49.811Z,1000.00
2018-04-25T11:01:49.770Z,848.00
2018-04-25T11:02:49.728Z,964.00
2018-04-25T11:03:49.689Z,1076.00
2018-04-25T11:04:49.645Z,1532.00
2018-04-25T11:05:49.604Z,2024.00
2018-04-25T11:06:49.562Z,1432.00
2018-04-25T11:07:49.520Z,876.00
2018-04-25T11:08:49.478Z,632.00
2018-04-25T11:09:49.436Z,980.00
2018-04-25T11:10:49.395Z,1272.00
2018-04-25T11:11:49.352Z,1812.00
2018-04-25T11:12:49.357Z,3268.00
2018-04-25T11:13:49.275Z,3980.00
2018-04-25T11:14:49.227Z,3936.00
2018-04-25T11:15:49.193Z,3664.00
2018-04-25T11:16:49.144Z,3312.00
2018-04-25T11:17:49.108Z,2896.00
2018-04-25T11:18:49.062Z,2280.00
2018-04-25T11:19:49.014Z,2128.00
2018-04-25T11:20:48.974Z,2032.00
2018-04-25T11:21:48.933Z,2220.00
2018-04-25T11:22:48.887Z,2532.00
2018-04-25T11:23:48.843Z,2444.00
2018-04-25T11:24:48.802Z,1928.00
2018-04-25T11:25:48.759Z,1836.00
2018-04-25T11:26:48.721Z,1928.00
2018-04-25T11:27:48.673Z,2164.00
2018-04-25T11:28:48.631Z,2436.00
2018-04-25T11:29:48.589Z,2300.00
2018-04-25T11:30:48.549Z,2192.00
2018-04-25T11:31:48.575Z,2372.00
2018-04-25T11:32:48.460Z,3100.00
2018-04-25T11:33:48.416Z,3580.00
2018-04-25T11:34:48.374Z,3220.00
2018-04-25T11:35:48.331Z,2916.00
2018-04-25T11:36:48.287Z,3288.00
2018-04-25T11:37:48.243Z,4152.00
2018-04-25T11:38:48.202Z,4164.00
2018-04-25T11:39:48.158Z,4004.00
2018-04-25T11:40:48.165Z,4120.00
2018-04-25T11:41:48.072Z,4632.00
2018-04-25T11:42:48.031Z,5456.00
2018-04-25T11:43:47.986Z,6208.00
2018-04-25T11:44:48.023Z,7584.00
2018-04-25T11:45:47.899Z,6220.00
2018-04-25T11:46:47.858Z,5144.00
2018-04-25T11:47:47.813Z,4104.00
2018-04-25T11:48:47.772Z,4400.00
2018-04-25T11:49:47.734Z,4700.00
2018-04-25T11:50:47.687Z,5288.00
2018-04-25T11:51:47.645Z,5160.00
2018-04-25T11:52:47.602Z,5084.00
2018-04-25T11:53:47.560Z,5764.00
2018-04-25T11:54:47.516Z,6444.00
2018-04-25T11:55:47.472Z,5132.00
2018-04-25T11:56:47.430Z,4052.00
2018-04-25T11:57:47.388Z,3380.00
2018-04-25T11:58:47.346Z,3340.00
2018-04-25T11:59:47.304Z,3156.00
2018-04-25T12:00:47.259Z,3144.00
2018-04-25T12:01:47.218Z,3176.00
2018-04-25T12:02:47.230Z,3208.00
2018-04-25T12:03:47.133Z,3040.00
2018-04-25T12:04:47.089Z,2812.00
2018-04-25T12:05:47.048Z,2696.00
2018-04-25T12:06:47.008Z,2628.00
2018-04-25T12:07:46.962Z,2572.00
2018-04-25T12:08:46.920Z,2524.00
2018-04-25T12:09:46.878Z,2496.00
2018-04-25T12:10:46.836Z,2268.00
2018-04-25T12:11:46.794Z,2484.00
2018-04-25T12:12:46.750Z,2608.00
2018-04-25T12:13:46.710Z,2556.00
2018-04-25T12:14:46.665Z,3032.00
2018-04-25T12:15:46.623Z,3268.00
2018-04-25T12:16:46.581Z,2960.00
2018-04-25T12:17:46.580Z,2676.00
2018-04-25T12:18:46.576Z,2628.00
2018-04-25T12:19:46.453Z,2584.00
2018-04-25T12:20:46.409Z,2516.00
2018-04-25T12:21:46.366Z,2656.00
2018-04-25T12:22:46.324Z,2708.00
2018-04-25T12:23:46.280Z,2732.00
2018-04-25T12:24:46.236Z,2960.00
2018-04-25T12:25:46.197Z,3088.00
2018-04-25T12:26:46.155Z,4016.00
2018-04-25T12:27:46.110Z,4796.00
2018-04-25T12:28:46.068Z,6056.00
2018-04-25T12:29:46.075Z,4332.00